Time;durP1;ratioP1;P1;durP2;ratioP2;P2;SDS_P1;SDS_P2;PMS_P1;PMS_P2;Temp;Humidity;BMP_temperature;BMP_pressure;BME280_temperature;BME280_humidity;BME280_pressure;Samples;Min_cycle;Max_cycle;Signal;HPM_P1;HPM_P2
2023/11/19 00:00:11;;;;;;;70.15;28.17;;;;;;;-146.25;100.00;52637.88;2080011;28;33870;-71
2023/11/19 00:01:12;;;;;;;69.15;28.63;;;;;;;-146.25;100.00;52605.44;2081026;28;20050;-72
2023/11/19 00:02:15;;;;;;;73.72;29.92;;;;;;;-146.25;100.00;52617.59;2079992;28;37214;-72
2023/11/19 00:03:17;;;;;;;71.65;29.17;;;;;;;-146.25;100.00;52595.28;2080111;28;37405;-72
2023/11/19 00:04:19;;;;;;;70.80;29.33;;;;;;;-146.25;100.00;52623.69;2079894;28;34347;-71
2023/11/19 00:05:21;;;;;;;74.50;29.67;;;;;;;-146.25;100.00;52643.97;2079933;28;38116;-72
2023/11/19 00:06:24;;;;;;;77.45;30.08;;;;;;;-146.25;100.00;52579.06;2080336;28;35329;-72
2023/11/19 00:07:26;;;;;;;73.22;30.17;;;;;;;-146.25;100.00;52637.88;2080160;28;34499;-72
2023/11/19 00:08:35;;;;;;;77.18;30.38;;;;;;;-146.25;100.00;52613.53;2080127;28;32672;-72
2023/11/19 00:09:37;;;;;;;87.38;31.27;;;;;;;-146.25;100.00;52627.75;2087916;28;33829;-72
2023/11/19 00:10:39;;;;;;;81.88;30.25;;;;;;;-146.25;100.00;52603.41;2088595;28;20049;-72
2023/11/19 00:11:40;;;;;;;78.25;30.77;;;;;;;-146.25;100.00;52627.75;2086904;28;36732;-72
2023/11/19 00:12:45;;;;;;;83.78;31.10;;;;;;;-146.25;100.00;52633.81;2087581;28;34456;-72
2023/11/19 00:13:48;;;;;;;83.70;31.90;;;;;;;-146.25;100.00;52609.50;2080388;28;36495;-72
2023/11/19 00:14:52;;;;;;;91.00;32.13;;;;;;;-146.25;100.00;52599.34;2078991;28;38334;-73
2023/11/19 00:15:53;;;;;;;75.78;29.52;;;;;;;-146.25;100.00;52611.50;2080228;28;20050;-72
2023/11/19 00:16:56;;;;;;;91.47;32.08;;;;;;;-146.25;100.00;52615.56;2080011;28;35175;-72
2023/11/19 00:17:57;;;;;;;88.72;31.50;;;;;;;-146.25;100.00;52605.44;2080045;28;34606;-72
2023/11/19 00:19:04;;;;;;;83.10;30.73;;;;;;;-146.25;100.00;52603.41;2080817;28;20156;-72
2023/11/19 00:20:07;;;;;;;86.40;30.90;;;;;;;-146.25;100.00;52627.75;2079233;28;38205;-72
2023/11/19 00:21:10;;;;;;;90.93;31.95;;;;;;;-146.25;100.00;52615.56;2080276;28;33909;-72
2023/11/19 00:22:12;;;;;;;91.82;32.60;;;;;;;-146.25;100.00;52607.47;2080746;28;20038;-72
2023/11/19 00:23:14;;;;;;;82.82;30.17;;;;;;;-146.25;100.00;52639.91;2079841;28;40309;-72
2023/11/19 00:24:18;;;;;;;91.97;31.15;;;;;;;-146.25;100.00;52617.59;2079759;28;36811;-72
2023/11/19 00:25:24;;;;;;;98.35;32.92;;;;;;;-146.25;100.00;52635.84;2080304;28;20038;-72
2023/11/19 00:26:26;;;;;;;92.53;32.03;;;;;;;-146.25;100.00;52595.28;2079859;28;39032;-72
2023/11/19 00:27:30;;;;;;;88.13;30.98;;;;;;;-146.25;100.00;52619.63;2080665;28;20879;-72
2023/11/19 00:28:37;;;;;;;89.70;31.23;;;;;;;-146.25;100.00;52654.09;2088132;28;21013;-72
2023/11/19 00:29:39;;;;;;;89.18;30.45;;;;;;;-146.25;100.00;52619.63;2079506;28;28895;-72
2023/11/19 00:30:41;;;;;;;82.43;30.35;;;;;;;-146.25;100.00;52607.47;2080261;28;20030;-72
2023/11/19 00:31:43;;;;;;;84.15;31.48;;;;;;;-146.25;100.00;52607.47;2080275;28;28724;-72
2023/11/19 00:32:45;;;;;;;80.82;30.83;;;;;;;-146.25;100.00;52607.47;2079068;28;27883;-72
2023/11/19 00:33:47;;;;;;;75.88;29.20;;;;;;;-146.25;100.00;52587.19;2079504;28;30518;-72
2023/11/19 00:34:51;;;;;;;79.43;29.55;;;;;;;-146.25;100.00;52637.88;2087413;28;20136;-72
2023/11/19 00:35:53;;;;;;;82.80;28.98;;;;;;;-146.25;100.00;52619.63;2080656;28;20085;-72
2023/11/19 00:36:55;;;;;;;76.07;29.02;;;;;;;-146.25;100.00;52611.50;2079967;28;30148;-72
2023/11/19 00:38:00;;;;;;;66.82;26.80;;;;;;;-146.25;100.00;52591.25;2087587;28;20041;-71
2023/11/19 00:39:02;;;;;;;73.85;28.70;;;;;;;-146.25;100.00;52595.28;2087680;28;29588;-72
2023/11/19 00:40:06;;;;;;;72.03;28.88;;;;;;;-146.25;100.00;52639.91;2087554;28;20625;-72
2023/11/19 00:41:07;;;;;;;74.97;28.27;;;;;;;-146.25;100.00;52627.75;2080284;28;26801;-73
2023/11/19 00:42:10;;;;;;;69.80;27.80;;;;;;;-146.25;100.00;52603.41;2079645;28;28509;-73
2023/11/19 00:43:13;;;;;;;72.40;28.55;;;;;;;-146.25;100.00;52611.50;2072673;28;20031;-72
2023/11/19 00:44:14;;;;;;;69.85;27.48;;;;;;;-146.25;100.00;52660.19;2071380;28;29009;-72
2023/11/19 00:45:16;;;;;;;77.07;28.58;;;;;;;-146.25;100.00;52652.06;2079530;28;31294;-71
2023/11/19 00:46:18;;;;;;;77.53;29.52;;;;;;;-146.25;100.00;52635.84;2080489;28;20089;-72
2023/11/19 00:47:20;;;;;;;76.22;28.35;;;;;;;-146.25;100.00;52627.75;2080650;28;20038;-72
2023/11/19 00:48:28;;;;;;;76.15;28.33;;;;;;;-146.25;100.00;52601.38;2080666;28;20037;-72
2023/11/19 00:49:34;;;;;;;78.60;28.70;;;;;;;-146.25;100.00;52599.34;2079859;28;26943;-72
2023/11/19 00:50:36;;;;;;;77.18;28.90;;;;;;;-146.25;100.00;52601.38;2079838;28;30749;-71
2023/11/19 00:51:39;;;;;;;84.03;30.63;;;;;;;-146.25;100.00;52635.84;2080426;28;20050;-72
2023/11/19 00:52:42;;;;;;;80.03;30.17;;;;;;;-146.25;100.00;52623.69;2080744;28;20934;-72
2023/11/19 00:53:46;;;;;;;86.45;29.58;;;;;;;-146.25;100.00;52609.50;2080090;28;29359;-73
2023/11/19 00:54:47;;;;;;;87.28;30.67;;;;;;;-146.25;100.00;52617.59;2087305;28;33948;-72
2023/11/19 00:55:49;;;;;;;85.55;30.67;;;;;;;-146.25;100.00;52654.09;2087887;28;25132;-73
2023/11/19 00:56:52;;;;;;;86.28;30.35;;;;;;;-146.25;100.00;52633.81;2080440;28;20046;-73
2023/11/19 00:57:56;;;;;;;92.55;31.25;;;;;;;-146.25;100.00;52615.56;2088072;28;20060;-73
2023/11/19 00:59:01;;;;;;;87.60;31.33;;;;;;;-146.25;100.00;52623.69;2087699;28;20952;-72
2023/11/19 01:00:17;;;;;;;96.15;31.65;;;;;;;-146.25;100.00;52583.13;2080024;28;20157;-72
2023/11/19 01:01:20;;;;;;;86.65;30.92;;;;;;;-146.25;100.00;52654.09;2079604;28;34400;-72
2023/11/19 01:02:25;;;;;;;82.07;30.90;;;;;;;-146.25;100.00;52633.81;2080678;28;20972;-72
2023/11/19 01:03:29;;;;;;;90.25;29.88;;;;;;;-146.25;100.00;52615.56;2080189;28;29173;-72
2023/11/19 01:04:36;;;;;;;90.00;30.23;;;;;;;-146.25;100.00;52627.75;2080503;28;20924;-72
2023/11/19 01:05:39;;;;;;;79.32;28.73;;;;;;;-146.25;100.00;52619.63;2079959;28;29250;-72
2023/11/19 01:06:42;;;;;;;80.60;28.17;;;;;;;-146.25;100.00;52643.97;2079399;28;32651;-72
2023/11/19 01:07:47;;;;;;;80.88;28.35;;;;;;;-146.25;100.00;52662.22;2080597;28;20034;-72
2023/11/19 01:08:48;;;;;;;75.30;26.63;;;;;;;-146.25;100.00;52627.75;2080151;28;26300;-73
2023/11/19 01:09:50;;;;;;;64.78;26.17;;;;;;;-146.25;100.00;52603.41;2080370;28;20045;-72
2023/11/19 01:10:52;;;;;;;70.47;25.65;;;;;;;-146.25;100.00;52605.44;2080486;28;22087;-73
2023/11/19 01:11:56;;;;;;;67.45;24.83;;;;;;;-146.25;100.00;52627.75;2079132;28;20147;-72
2023/11/19 01:12:58;;;;;;;64.10;24.00;;;;;;;-146.25;100.00;52607.47;2079499;28;33241;-72
2023/11/19 01:14:00;;;;;;;55.42;23.08;;;;;;;-146.25;100.00;52611.50;2080307;28;20050;-72
2023/11/19 01:15:03;;;;;;;58.20;23.13;;;;;;;-146.25;100.00;52635.84;2080056;28;24491;-72
2023/11/19 01:16:06;;;;;;;64.07;23.50;;;;;;;-146.25;100.00;52599.34;2079854;28;27485;-72
2023/11/19 01:17:09;;;;;;;52.83;21.55;;;;;;;-146.25;100.00;52601.38;2087322;28;32714;-73
2023/11/19 01:18:11;;;;;;;57.58;21.65;;;;;;;-146.25;100.00;52633.81;2087742;28;23809;-73
2023/11/19 01:19:12;;;;;;;55.55;22.13;;;;;;;-146.25;100.00;52611.50;2079949;28;25667;-72
2023/11/19 01:20:18;;;;;;;58.03;23.05;;;;;;;-146.25;100.00;52587.19;2079676;28;30349;-73
2023/11/19 01:21:20;;;;;;;58.13;22.60;;;;;;;-146.25;100.00;52601.38;2079988;28;22457;-73
2023/11/19 01:22:25;;;;;;;57.50;22.55;;;;;;;-146.25;100.00;52613.53;2087745;28;20038;-73
2023/11/19 01:23:27;;;;;;;58.05;22.58;;;;;;;-146.25;100.00;52611.50;2087302;28;26649;-73
2023/11/19 01:24:30;;;;;;;64.47;23.48;;;;;;;-146.25;100.00;52635.84;2080380;28;20104;-73
2023/11/19 01:25:32;;;;;;;63.33;23.15;;;;;;;-146.25;100.00;52595.28;2080287;28;20181;-73
2023/11/19 01:26:36;;;;;;;65.55;23.83;;;;;;;-146.25;100.00;52617.59;2079777;28;30416;-73
2023/11/19 01:27:38;;;;;;;60.60;23.90;;;;;;;-146.25;100.00;52599.34;2079935;28;27009;-72
2023/11/19 01:28:42;;;;;;;68.38;24.98;;;;;;;-146.25;100.00;52589.22;2088357;28;20053;-73
2023/11/19 01:29:53;;;;;;;66.05;24.48;;;;;;;-146.25;100.00;52631.78;2079466;28;20073;-73
2023/11/19 01:30:54;;;;;;;69.13;24.60;;;;;;;-146.25;100.00;52603.41;2079286;28;25401;-70
2023/11/19 01:31:56;;;;;;;71.22;24.77;;;;;;;-146.25;100.00;52625.72;2079640;28;29559;-70
2023/11/19 01:32:58;;;;;;;71.65;25.63;;;;;;;-146.25;100.00;52599.34;2079296;28;29076;-70
2023/11/19 01:34:00;;;;;;;62.10;24.95;;;;;;;-146.25;100.00;52599.34;2078909;28;30006;-71
2023/11/19 01:35:02;;;;;;;75.22;26.02;;;;;;;-146.25;100.00;52615.56;2078804;28;25891;-71
2023/11/19 01:36:05;;;;;;;74.63;26.85;;;;;;;-146.25;100.00;52585.16;2079815;28;34590;-71
2023/11/19 01:37:12;;;;;;;74.05;25.48;;;;;;;-146.25;100.00;52595.28;2080527;28;20127;-71
2023/11/19 01:38:14;;;;;;;74.07;26.42;;;;;;;-146.25;100.00;52668.28;2087708;28;20041;-71
2023/11/19 01:39:16;;;;;;;74.80;26.20;;;;;;;-146.25;100.00;52601.38;2087134;28;31322;-72
2023/11/19 01:40:22;;;;;;;85.15;27.48;;;;;;;-146.25;100.00;52621.66;2087090;28;36975;-72
2023/11/19 01:41:26;;;;;;;77.47;26.40;;;;;;;-146.25;100.00;52641.94;2079609;28;20120;-71
2023/11/19 01:42:28;;;;;;;85.47;27.52;;;;;;;-146.25;100.00;52619.63;2079124;28;31000;-72
2023/11/19 01:43:42;;;;;;;88.90;27.20;;;;;;;-146.25;100.00;52607.47;2086982;28;25857;-72
2023/11/19 01:45:00;;;;;;;82.72;27.85;;;;;;;-146.25;100.00;52583.13;2086389;28;20042;-72
2023/11/19 01:46:04;;;;;;;80.07;26.65;;;;;;;-146.25;100.00;52629.75;2087750;28;20164;-72
2023/11/19 01:47:08;;;;;;;81.63;27.40;;;;;;;-146.25;100.00;52611.50;2086873;28;33156;-71
2023/11/19 01:48:11;;;;;;;85.82;26.98;;;;;;;-146.25;100.00;52633.81;2079592;28;23974;-72
2023/11/19 01:49:17;;;;;;;78.47;26.80;;;;;;;-146.25;100.00;52611.50;2087319;28;20038;-71
2023/11/19 01:50:20;;;;;;;72.78;26.50;;;;;;;-146.25;100.00;52603.41;2086970;28;28316;-71
2023/11/19 01:51:22;;;;;;;80.85;26.30;;;;;;;-146.25;100.00;52631.78;2087362;28;31705;-71
2023/11/19 01:52:25;;;;;;;76.97;27.60;;;;;;;-146.25;100.00;52599.34;2087412;28;20740;-71
2023/11/19 01:53:30;;;;;;;74.90;26.38;;;;;;;-146.25;100.00;52603.41;2087680;28;26858;-72
2023/11/19 01:54:33;;;;;;;78.53;26.02;;;;;;;-146.25;100.00;52615.56;2078856;28;34865;-71
2023/11/19 01:55:34;;;;;;;70.38;26.05;;;;;;;-146.25;100.00;52607.47;2079299;28;21190;-72
2023/11/19 01:56:40;;;;;;;82.78;26.48;;;;;;;-146.25;100.00;52660.19;2086921;28;30384;-69
2023/11/19 01:57:47;;;;;;;69.40;24.40;;;;;;;-146.25;100.00;52601.38;2080139;28;20939;-69
2023/11/19 01:58:54;;;;;;;67.65;25.23;;;;;;;-146.25;100.00;52615.56;2072031;28;20086;-72
2023/11/19 01:59:56;;;;;;;68.45;24.77;;;;;;;-146.25;100.00;52633.81;2071617;28;20895;-71
2023/11/19 02:01:00;;;;;;;72.32;25.10;;;;;;;-146.25;100.00;52589.22;2079308;28;21609;-71
2023/11/19 02:02:02;;;;;;;75.18;25.58;;;;;;;-146.25;100.00;52591.25;2087784;28;20037;-71
2023/11/19 02:03:08;;;;;;;67.97;24.85;;;;;;;-146.25;100.00;52587.19;2078617;28;34197;-72
2023/11/19 02:04:11;;;;;;;65.18;24.52;;;;;;;-146.25;100.00;52603.41;2080064;28;20042;-71
2023/11/19 02:05:13;;;;;;;73.93;26.25;;;;;;;-146.25;100.00;52585.16;2087116;28;20037;-72
2023/11/19 02:06:15;;;;;;;69.85;24.88;;;;;;;-146.25;100.00;52619.63;2087017;28;31830;-72
2023/11/19 02:07:18;;;;;;;70.82;25.52;;;;;;;-146.25;100.00;52629.75;2087650;28;20477;-70
2023/11/19 02:08:20;;;;;;;67.68;24.38;;;;;;;-146.25;100.00;52615.56;2079661;28;36472;-71
2023/11/19 02:09:22;;;;;;;74.60;25.23;;;;;;;-146.25;100.00;52619.63;2087532;28;20045;-71
2023/11/19 02:10:24;;;;;;;74.45;25.13;;;;;;;-146.25;100.00;52627.75;2087561;28;20892;-71
2023/11/19 02:11:29;;;;;;;72.50;25.80;;;;;;;-146.25;100.00;52607.47;2087364;28;21299;-71
2023/11/19 02:12:35;;;;;;;74.25;26.13;;;;;;;-146.25;100.00;52587.19;2087379;28;25011;-71
2023/11/19 02:13:43;;;;;;;67.35;25.35;;;;;;;-146.25;100.00;52585.16;2086948;28;20944;-71
2023/11/19 02:14:51;;;;;;;80.65;26.95;;;;;;;-146.25;100.00;52611.50;2087571;28;20064;-71
2023/11/19 02:15:53;;;;;;;82.72;25.42;;;;;;;-146.25;100.00;52611.50;2087334;28;20101;-72
2023/11/19 02:16:55;;;;;;;73.50;25.45;;;;;;;-146.25;100.00;52625.72;2079788;28;27786;-72
2023/11/19 02:17:56;;;;;;;84.85;26.30;;;;;;;-146.25;100.00;52603.41;2080194;28;20038;-70
2023/11/19 02:19:00;;;;;;;78.82;26.30;;;;;;;-146.25;100.00;52599.34;2087441;28;20076;-71
2023/11/19 02:20:03;;;;;;;85.90;27.48;;;;;;;-146.25;100.00;52617.59;2083918;28;20478;-72
2023/11/19 02:21:05;;;;;;;79.38;25.13;;;;;;;-146.25;100.00;52607.47;2078841;28;28808;-72
2023/11/19 02:22:07;;;;;;;78.88;25.40;;;;;;;-146.25;100.00;52648.00;2079404;28;20336;-72
2023/11/19 02:23:13;;;;;;;80.63;25.70;;;;;;;-146.25;100.00;52656.13;2079089;28;20042;-72
2023/11/19 02:24:21;;;;;;;76.53;25.45;;;;;;;-146.25;100.00;52597.31;2087438;28;20164;-72
2023/11/19 02:25:33;;;;;;;76.03;25.58;;;;;;;-146.25;100.00;52589.22;2087370;28;27357;-72
2023/11/19 02:27:10;;;;;;;85.65;26.77;;;;;;;-146.25;100.00;52597.31;2078963;28;30850;-72
2023/11/19 02:28:16;;;;;;;76.30;26.35;;;;;;;-146.25;100.00;52589.22;2079831;28;20038;-72
2023/11/19 02:29:18;;;;;;;78.95;26.52;;;;;;;-146.25;100.00;52607.47;2079836;28;25039;-71
2023/11/19 02:30:20;;;;;;;78.95;25.92;;;;;;;-146.25;100.00;52593.25;2087151;28;20057;-72
2023/11/19 02:31:22;;;;;;;83.97;28.10;;;;;;;-146.25;100.00;52601.38;2086925;28;33947;-71
2023/11/19 02:32:30;;;;;;;80.50;27.83;;;;;;;-146.25;100.00;52609.50;2079302;28;35752;-72
2023/11/19 02:33:34;;;;;;;88.40;28.13;;;;;;;-146.25;100.00;52603.41;2079785;28;27289;-72
2023/11/19 02:34:36;;;;;;;88.97;27.48;;;;;;;-146.25;100.00;52566.91;2079528;28;26764;-72
2023/11/19 02:35:40;;;;;;;89.30;28.58;;;;;;;-146.25;100.00;52623.69;2079707;28;20033;-72
2023/11/19 02:36:42;;;;;;;83.78;27.42;;;;;;;-146.25;100.00;52605.44;2079844;28;22895;-72
2023/11/19 02:37:46;;;;;;;84.30;29.27;;;;;;;-146.25;100.00;52573.00;2080059;28;26267;-71
2023/11/19 02:38:48;;;;;;;91.50;28.52;;;;;;;-146.25;100.00;52617.59;2079178;28;20165;-72
2023/11/19 02:39:50;;;;;;;89.10;28.67;;;;;;;-146.25;100.00;52635.84;2078958;28;22867;-72
2023/11/19 02:40:54;;;;;;;91.45;28.17;;;;;;;-146.25;100.00;52601.38;2079950;28;20654;-72
2023/11/19 02:41:55;;;;;;;84.40;28.35;;;;;;;-146.25;100.00;52633.81;2079677;28;23645;-72
2023/11/19 02:42:57;;;;;;;89.90;27.75;;;;;;;-146.25;100.00;52607.47;2079657;28;30938;-71
2023/11/19 02:44:05;;;;;;;90.68;28.55;;;;;;;-146.25;100.00;52611.50;2087615;28;20716;-72
2023/11/19 02:45:13;;;;;;;93.53;29.48;;;;;;;-146.25;100.00;52623.69;2080245;28;20922;-72
2023/11/19 02:46:17;;;;;;;90.85;28.80;;;;;;;-146.25;100.00;52631.78;2080670;28;20945;-72
2023/11/19 02:47:21;;;;;;;83.57;28.42;;;;;;;-146.25;100.00;52627.75;2081067;28;27035;-71
2023/11/19 02:48:25;;;;;;;81.93;28.90;;;;;;;-146.25;100.00;52629.75;2080850;28;29600;-72
2023/11/19 02:49:29;;;;;;;80.55;27.60;;;;;;;-146.25;100.00;52581.09;2081323;28;20137;-72
2023/11/19 02:50:31;;;;;;;89.70;29.17;;;;;;;-146.25;100.00;52605.44;2088094;28;31360;-72
2023/11/19 02:51:34;;;;;;;86.25;28.67;;;;;;;-146.25;100.00;52603.41;2089288;28;20068;-72
2023/11/19 02:52:37;;;;;;;83.70;29.13;;;;;;;-146.25;100.00;52550.69;2080490;28;27429;-72
2023/11/19 02:53:39;;;;;;;92.25;28.52;;;;;;;-146.25;100.00;52605.44;2081337;28;21285;-71
2023/11/19 02:54:43;;;;;;;86.13;28.58;;;;;;;-146.25;100.00;52617.59;2088304;28;26628;-71
2023/11/19 02:55:48;;;;;;;80.55;27.60;;;;;;;-146.25;100.00;52607.47;2088157;28;26413;-72
2023/11/19 02:56:55;;;;;;;90.65;28.58;;;;;;;-146.25;100.00;52613.53;2081300;28;20057;-72
2023/11/19 02:57:59;;;;;;;75.75;25.70;;;;;;;-146.25;100.00;52611.50;2080923;28;28062;-72
2023/11/19 02:59:11;;;;;;;83.60;26.90;;;;;;;-146.25;100.00;52633.81;2081233;28;20140;-72
2023/11/19 03:00:18;;;;;;;88.75;27.75;;;;;;;-146.25;100.00;52611.50;2088499;28;20816;-72
2023/11/19 03:01:29;;;;;;;74.88;27.50;;;;;;;-146.25;100.00;52656.13;2079948;28;28199;-72
2023/11/19 03:02:43;;;;;;;75.38;25.88;;;;;;;-146.25;100.00;52637.88;2081710;28;25053;-72
2023/11/19 03:03:49;;;;;;;79.32;27.13;;;;;;;-146.25;100.00;52605.44;2087470;28;20962;-72
2023/11/19 03:04:51;;;;;;;81.78;27.08;;;;;;;-146.25;100.00;52631.78;2081121;28;20434;-72
2023/11/19 03:05:52;;;;;;;76.85;26.88;;;;;;;-146.25;100.00;52615.56;2088070;28;30830;-72
2023/11/19 03:06:55;;;;;;;75.80;25.67;;;;;;;-146.25;100.00;52617.59;2088246;28;32243;-72
2023/11/19 03:07:57;;;;;;;83.80;27.40;;;;;;;-146.25;100.00;52635.84;2088492;28;29272;-72
2023/11/19 03:09:05;;;;;;;75.70;26.50;;;;;;;-146.25;100.00;52631.78;2079984;28;37729;-71
2023/11/19 03:10:09;;;;;;;74.90;27.52;;;;;;;-146.25;100.00;52613.53;2080720;28;27714;-72
2023/11/19 03:11:10;;;;;;;74.40;26.77;;;;;;;-146.25;100.00;52589.22;2080853;28;22642;-72
2023/11/19 03:12:12;;;;;;;76.63;27.77;;;;;;;-146.25;100.00;52585.16;2080094;28;36777;-72
2023/11/19 03:13:14;;;;;;;77.45;26.67;;;;;;;-146.25;100.00;52577.03;2081145;28;20038;-72
2023/11/19 03:14:16;;;;;;;72.57;25.55;;;;;;;-146.25;100.00;52619.63;2080744;28;29318;-72
2023/11/19 03:15:23;;;;;;;73.18;26.13;;;;;;;-146.25;100.00;52619.63;2080511;28;29035;-71
2023/11/19 03:16:27;;;;;;;78.95;26.27;;;;;;;-146.25;100.00;52639.91;2081145;28;28604;-72
2023/11/19 03:17:28;;;;;;;73.43;26.17;;;;;;;-146.25;100.00;52599.34;2088937;28;20652;-72
2023/11/19 03:18:30;;;;;;;72.40;26.25;;;;;;;-146.25;100.00;52637.88;2088692;28;20069;-72
2023/11/19 03:19:32;;;;;;;67.50;25.45;;;;;;;-146.25;100.00;52623.69;2080749;28;31022;-72
2023/11/19 03:20:34;;;;;;;73.57;25.80;;;;;;;-146.25;100.00;52615.56;2080892;28;20806;-72
2023/11/19 03:21:37;;;;;;;72.05;25.88;;;;;;;-146.25;100.00;52601.38;2088412;28;21216;-70
2023/11/19 03:22:39;;;;;;;72.30;25.77;;;;;;;-146.25;100.00;52615.56;2088756;28;27661;-71
2023/11/19 03:23:40;;;;;;;69.32;23.90;;;;;;;-146.25;100.00;52577.03;2079793;28;31068;-71
2023/11/19 03:24:42;;;;;;;73.70;25.27;;;;;;;-146.25;100.00;52639.91;2080789;28;20109;-72
2023/11/19 03:25:44;;;;;;;76.97;26.15;;;;;;;-146.25;100.00;52625.72;2080582;28;30217;-72
2023/11/19 03:26:52;;;;;;;84.45;25.90;;;;;;;-146.25;100.00;52611.50;2080957;28;29540;-72
2023/11/19 03:27:53;;;;;;;72.72;24.33;;;;;;;-146.25;100.00;52593.25;2080198;28;33720;-72
2023/11/19 03:28:56;;;;;;;79.68;25.67;;;;;;;-146.25;100.00;52629.75;2080981;28;20169;-71
2023/11/19 03:29:58;;;;;;;73.45;24.83;;;;;;;-146.25;100.00;52605.44;2080792;28;20180;-72
2023/11/19 03:31:01;;;;;;;71.30;25.80;;;;;;;-146.25;100.00;52587.19;2079592;28;23428;-71
2023/11/19 03:32:03;;;;;;;75.18;25.33;;;;;;;-146.25;100.00;52577.03;2079893;28;28644;-71
2023/11/19 03:33:05;;;;;;;75.97;25.88;;;;;;;-146.25;100.00;52631.78;2080486;28;31417;-71
2023/11/19 03:34:07;;;;;;;77.22;24.98;;;;;;;-146.25;100.00;52609.50;2080547;28;29378;-72
2023/11/19 03:35:11;;;;;;;66.80;24.75;;;;;;;-146.25;100.00;52607.47;2088098;28;27779;-71
2023/11/19 03:36:14;;;;;;;65.88;24.98;;;;;;;-146.25;100.00;52623.69;2088279;28;20836;-72
2023/11/19 03:37:17;;;;;;;65.72;24.13;;;;;;;-146.25;100.00;52629.75;2080688;28;28299;-71
2023/11/19 03:38:19;;;;;;;73.03;24.95;;;;;;;-146.25;100.00;52603.41;2080580;28;33794;-71
2023/11/19 03:39:20;;;;;;;75.35;25.42;;;;;;;-146.25;100.00;52589.22;2088089;28;27840;-72
2023/11/19 03:40:24;;;;;;;67.63;24.65;;;;;;;-146.25;100.00;52599.34;2079613;28;26985;-72
2023/11/19 03:41:27;;;;;;;72.43;24.10;;;;;;;-146.25;100.00;52625.72;2080590;28;20052;-72
2023/11/19 03:42:30;;;;;;;71.15;24.38;;;;;;;-146.25;100.00;52605.44;2079586;28;28705;-72
2023/11/19 03:43:33;;;;;;;64.60;23.45;;;;;;;-146.25;100.00;52631.78;2080406;28;24568;-72
2023/11/19 03:44:35;;;;;;;70.43;24.10;;;;;;;-146.25;100.00;52613.53;2080644;28;26954;-72
2023/11/19 03:45:37;;;;;;;75.68;24.83;;;;;;;-146.25;100.00;52609.50;2088346;28;29007;-72
2023/11/19 03:46:43;;;;;;;75.82;24.27;;;;;;;-146.25;100.00;52585.16;2087921;28;20045;-72
2023/11/19 03:47:45;;;;;;;71.38;23.52;;;;;;;-146.25;100.00;52627.75;2080395;28;32852;-72
2023/11/19 03:48:49;;;;;;;68.35;23.58;;;;;;;-146.25;100.00;52605.44;2079903;28;27865;-71
2023/11/19 03:49:54;;;;;;;64.38;23.13;;;;;;;-146.25;100.00;52605.44;2080472;28;20042;-72
2023/11/19 03:50:57;;;;;;;72.10;22.83;;;;;;;-146.25;100.00;52607.47;2087997;28;26222;-72
2023/11/19 03:51:59;;;;;;;68.15;22.65;;;;;;;-146.25;100.00;52652.06;2088550;28;20120;-72
2023/11/19 03:53:02;;;;;;;65.50;22.48;;;;;;;-146.25;100.00;52611.50;2087900;28;25842;-72
2023/11/19 03:54:06;;;;;;;62.55;22.50;;;;;;;-146.25;100.00;52611.50;2088000;28;30471;-72
2023/11/19 03:55:08;;;;;;;64.20;22.58;;;;;;;-146.25;100.00;52637.88;2079880;28;26726;-72
2023/11/19 03:56:11;;;;;;;69.22;22.85;;;;;;;-146.25;100.00;52611.50;2079314;28;25090;-72
2023/11/19 03:57:13;;;;;;;65.25;21.95;;;;;;;-146.25;100.00;52617.59;2080455;28;29330;-71
2023/11/19 03:58:15;;;;;;;66.65;22.98;;;;;;;-146.25;100.00;52648.00;2080836;28;20212;-72
2023/11/19 03:59:18;;;;;;;63.70;22.83;;;;;;;-146.25;100.00;52603.41;2087550;28;33502;-71
2023/11/19 04:00:20;;;;;;;62.60;21.65;;;;;;;-146.25;100.00;52605.44;2087976;28;30460;-72
2023/11/19 04:01:22;;;;;;;60.17;21.77;;;;;;;-146.25;100.00;52623.69;2087575;28;35338;-70
2023/11/19 04:02:27;;;;;;;64.30;21.92;;;;;;;-146.25;100.00;52623.69;2080441;28;20128;-72
2023/11/19 04:03:29;;;;;;;76.72;23.38;;;;;;;-146.25;100.00;52568.94;2079434;28;38013;-71
2023/11/19 04:04:31;;;;;;;60.67;21.23;;;;;;;-146.25;100.00;52603.41;2079733;28;33336;-72
2023/11/19 04:05:34;;;;;;;70.28;21.45;;;;;;;-146.25;100.00;52621.66;2087882;28;20049;-71
2023/11/19 04:06:36;;;;;;;58.83;20.88;;;;;;;-146.25;100.00;52575.00;2087886;28;31832;-72
2023/11/19 04:07:37;;;;;;;60.97;20.50;;;;;;;-146.25;100.00;52631.78;2088421;28;24814;-71
2023/11/19 04:08:39;;;;;;;61.83;20.40;;;;;;;-146.25;100.00;52583.13;2087905;28;32330;-72
2023/11/19 04:09:46;;;;;;;56.33;19.88;;;;;;;-146.25;100.00;52589.22;2079952;28;28740;-71
2023/11/19 04:10:48;;;;;;;55.80;20.50;;;;;;;-146.25;100.00;52556.75;2081267;28;20127;-72
2023/11/19 04:11:50;;;;;;;59.75;21.33;;;;;;;-146.25;100.00;52615.56;2087174;28;31764;-72
2023/11/19 04:12:52;;;;;;;64.45;21.33;;;;;;;-146.25;100.00;52581.09;2088659;28;20123;-72
2023/11/19 04:13:54;;;;;;;58.42;19.42;;;;;;;-146.25;100.00;52579.06;2087431;28;35904;-73
2023/11/19 04:14:56;;;;;;;53.95;20.52;;;;;;;-146.25;100.00;52595.28;2087879;28;27016;-72
2023/11/19 04:16:01;;;;;;;59.55;19.55;;;;;;;-146.25;100.00;52587.19;2087440;28;20245;-72
2023/11/19 04:17:03;;;;;;;58.70;18.88;;;;;;;-146.25;100.00;52599.34;2081053;28;20038;-72
2023/11/19 04:18:05;;;;;;;58.58;18.75;;;;;;;-146.25;100.00;52577.03;2080291;28;27422;-72
2023/11/19 04:19:07;;;;;;;56.72;17.98;;;;;;;-146.25;100.00;52621.66;2079141;28;35069;-73
2023/11/19 04:20:13;;;;;;;64.05;19.75;;;;;;;-146.25;100.00;52585.16;2079637;28;30593;-72
2023/11/19 04:21:20;;;;;;;47.90;17.27;;;;;;;-146.25;100.00;52595.28;2080851;28;20034;-72
2023/11/19 04:22:22;;;;;;;56.17;17.77;;;;;;;-146.25;100.00;52599.34;2080110;28;28582;-71
2023/11/19 04:23:24;;;;;;;51.38;18.00;;;;;;;-146.25;100.00;52579.06;2080824;28;21833;-72
2023/11/19 04:24:29;;;;;;;56.53;18.25;;;;;;;-146.25;100.00;52627.75;2087418;28;20127;-72
2023/11/19 04:25:31;;;;;;;53.33;16.77;;;;;;;-146.25;100.00;52605.44;2087278;28;29107;-73
2023/11/19 04:26:34;;;;;;;54.70;17.85;;;;;;;-146.25;100.00;52603.41;2080321;28;30268;-71
2023/11/19 04:27:35;;;;;;;51.28;17.17;;;;;;;-146.25;100.00;52615.56;2080822;28;26875;-73
2023/11/19 04:28:37;;;;;;;56.58;17.27;;;;;;;-146.25;100.00;52591.25;2080161;28;36432;-71
2023/11/19 04:29:39;;;;;;;54.90;16.70;;;;;;;-146.25;100.00;52573.00;2088389;28;20050;-72
2023/11/19 04:30:41;;;;;;;44.38;15.10;;;;;;;-146.25;100.00;52666.25;2087883;28;21665;-72
2023/11/19 04:31:46;;;;;;;57.10;16.02;;;;;;;-146.25;100.00;52627.75;2081024;28;20159;-73
2023/11/19 04:32:49;;;;;;;45.15;15.20;;;;;;;-146.25;100.00;52611.50;2088242;28;20038;-72
2023/11/19 04:33:52;;;;;;;47.75;15.25;;;;;;;-146.25;100.00;52619.63;2087367;28;25003;-73
2023/11/19 04:34:53;;;;;;;48.70;14.38;;;;;;;-146.25;100.00;52599.34;2080013;28;32660;-72
2023/11/19 04:35:55;;;;;;;50.65;15.73;;;;;;;-146.25;100.00;52605.44;2080289;28;29282;-72
2023/11/19 04:36:57;;;;;;;37.28;14.68;;;;;;;-146.25;100.00;52625.72;2080314;28;35615;-71
2023/11/19 04:37:59;;;;;;;44.67;13.55;;;;;;;-146.25;100.00;52601.38;2087657;28;38106;-72
2023/11/19 04:39:01;;;;;;;49.90;14.77;;;;;;;-146.25;100.00;52583.13;2087175;28;34825;-72
2023/11/19 04:40:03;;;;;;;45.88;13.93;;;;;;;-146.25;100.00;52593.25;2080449;28;35091;-73
2023/11/19 04:41:06;;;;;;;47.60;14.75;;;;;;;-146.25;100.00;52605.44;2079691;28;38692;-72
2023/11/19 04:42:08;;;;;;;49.65;14.15;;;;;;;-146.25;100.00;52587.19;2087554;28;36703;-73